sensor_id;sensor_type;location;lat;lon;timestamp;P1;durP1;ratioP1;P2;durP2;ratioP2
40669;SDS011;26355;45.528;9.234;2023-08-17T00:00:09;8.20;;;3.00;;
40669;SDS011;26355;45.528;9.234;2023-08-17T00:02:38;9.40;;;3.00;;
40669;SDS011;26355;45.528;9.234;2023-08-17T00:05:05;6.45;;;2.80;;
40669;SDS011;26355;45.528;9.234;2023-08-17T00:07:34;8.60;;;2.92;;
40669;SDS011;26355;45.528;9.234;2023-08-17T00:09:59;6.85;;;2.60;;
40669;SDS011;26355;45.528;9.234;2023-08-17T00:12:25;7.20;;;2.70;;
40669;SDS011;26355;45.528;9.234;2023-08-17T00:14:51;8.90;;;3.15;;
40669;SDS011;26355;45.528;9.234;2023-08-17T00:17:18;8.80;;;3.05;;
40669;SDS011;26355;45.528;9.234;2023-08-17T00:19:44;8.80;;;3.40;;
40669;SDS011;26355;45.528;9.234;2023-08-17T00:22:09;9.73;;;3.63;;
40669;SDS011;26355;45.528;9.234;2023-08-17T00:24:35;9.88;;;3.33;;
40669;SDS011;26355;45.528;9.234;2023-08-17T00:27:00;8.38;;;3.30;;
40669;SDS011;26355;45.528;9.234;2023-08-17T00:29:26;11.05;;;3.42;;
40669;SDS011;26355;45.528;9.234;2023-08-17T00:31:51;9.65;;;3.45;;
40669;SDS011;26355;45.528;9.234;2023-08-17T00:34:17;10.45;;;3.90;;
40669;SDS011;26355;45.528;9.234;2023-08-17T00:36:43;8.98;;;3.75;;
40669;SDS011;26355;45.528;9.234;2023-08-17T00:39:09;12.75;;;4.40;;
40669;SDS011;26355;45.528;9.234;2023-08-17T00:41:35;11.50;;;3.97;;
40669;SDS011;26355;45.528;9.234;2023-08-17T00:44:00;9.57;;;3.67;;
40669;SDS011;26355;45.528;9.234;2023-08-17T00:46:26;12.00;;;3.85;;
40669;SDS011;26355;45.528;9.234;2023-08-17T00:48:53;12.25;;;3.88;;
40669;SDS011;26355;45.528;9.234;2023-08-17T00:51:23;9.45;;;3.30;;
40669;SDS011;26355;45.528;9.234;2023-08-17T00:53:53;12.48;;;3.88;;
40669;SDS011;26355;45.528;9.234;2023-08-17T00:56:22;10.13;;;3.50;;
40669;SDS011;26355;45.528;9.234;2023-08-17T00:58:48;9.32;;;3.28;;
40669;SDS011;26355;45.528;9.234;2023-08-17T01:01:14;11.85;;;3.80;;
40669;SDS011;26355;45.528;9.234;2023-08-17T01:03:40;8.52;;;3.58;;
40669;SDS011;26355;45.528;9.234;2023-08-17T01:06:07;8.88;;;3.30;;
40669;SDS011;26355;45.528;9.234;2023-08-17T01:08:32;9.98;;;3.92;;
40669;SDS011;26355;45.528;9.234;2023-08-17T01:16:37;10.05;;;3.70;;
40669;SDS011;26355;45.528;9.234;2023-08-17T01:19:08;11.50;;;3.65;;
40669;SDS011;26355;45.528;9.234;2023-08-17T01:21:41;10.80;;;4.03;;
40669;SDS011;26355;45.528;9.234;2023-08-17T01:24:08;8.68;;;3.53;;
40669;SDS011;26355;45.528;9.234;2023-08-17T01:26:35;11.13;;;3.78;;
40669;SDS011;26355;45.528;9.234;2023-08-17T01:29:01;12.02;;;4.40;;
40669;SDS011;26355;45.528;9.234;2023-08-17T01:31:28;11.30;;;3.93;;
40669;SDS011;26355;45.528;9.234;2023-08-17T01:34:04;11.60;;;4.07;;
40669;SDS011;26355;45.528;9.234;2023-08-17T01:36:37;12.35;;;4.28;;
40669;SDS011;26355;45.528;9.234;2023-08-17T01:39:08;11.23;;;4.28;;
40669;SDS011;26355;45.528;9.234;2023-08-17T01:41:34;13.18;;;4.63;;
40669;SDS011;26355;45.528;9.234;2023-08-17T01:44:02;12.95;;;4.47;;
40669;SDS011;26355;45.528;9.234;2023-08-17T01:46:32;12.07;;;4.32;;
40669;SDS011;26355;45.528;9.234;2023-08-17T01:48:58;15.07;;;5.07;;
40669;SDS011;26355;45.528;9.234;2023-08-17T01:51:24;13.98;;;5.57;;
40669;SDS011;26355;45.528;9.234;2023-08-17T01:53:50;12.98;;;4.82;;
40669;SDS011;26355;45.528;9.234;2023-08-17T01:56:16;14.00;;;5.32;;
40669;SDS011;26355;45.528;9.234;2023-08-17T01:58:41;14.00;;;5.30;;
40669;SDS011;26355;45.528;9.234;2023-08-17T02:01:07;14.13;;;4.97;;
40669;SDS011;26355;45.528;9.234;2023-08-17T02:03:33;13.88;;;6.05;;
40669;SDS011;26355;45.528;9.234;2023-08-17T02:05:59;12.63;;;5.45;;
40669;SDS011;26355;45.528;9.234;2023-08-17T02:08:25;12.77;;;5.73;;
40669;SDS011;26355;45.528;9.234;2023-08-17T02:10:50;13.15;;;5.35;;
40669;SDS011;26355;45.528;9.234;2023-08-17T02:13:16;12.00;;;4.80;;
40669;SDS011;26355;45.528;9.234;2023-08-17T02:15:42;12.65;;;4.57;;
40669;SDS011;26355;45.528;9.234;2023-08-17T02:18:08;12.48;;;5.00;;
40669;SDS011;26355;45.528;9.234;2023-08-17T02:20:34;12.88;;;4.72;;
40669;SDS011;26355;45.528;9.234;2023-08-17T02:23:00;11.88;;;4.45;;
40669;SDS011;26355;45.528;9.234;2023-08-17T02:25:26;13.07;;;5.05;;
40669;SDS011;26355;45.528;9.234;2023-08-17T02:27:52;13.63;;;4.70;;
40669;SDS011;26355;45.528;9.234;2023-08-17T02:30:17;10.50;;;4.15;;
40669;SDS011;26355;45.528;9.234;2023-08-17T02:32:43;11.80;;;4.28;;
40669;SDS011;26355;45.528;9.234;2023-08-17T02:35:09;10.32;;;3.58;;
40669;SDS011;26355;45.528;9.234;2023-08-17T02:37:35;10.37;;;3.97;;
40669;SDS011;26355;45.528;9.234;2023-08-17T02:40:01;11.05;;;3.50;;
40669;SDS011;26355;45.528;9.234;2023-08-17T02:42:29;9.77;;;3.60;;
40669;SDS011;26355;45.528;9.234;2023-08-17T02:44:54;9.68;;;3.35;;
40669;SDS011;26355;45.528;9.234;2023-08-17T02:47:20;9.77;;;3.60;;
40669;SDS011;26355;45.528;9.234;2023-08-17T02:49:45;8.75;;;3.42;;
40669;SDS011;26355;45.528;9.234;2023-08-17T02:52:14;9.73;;;3.40;;
40669;SDS011;26355;45.528;9.234;2023-08-17T02:54:39;11.20;;;3.97;;
40669;SDS011;26355;45.528;9.234;2023-08-17T02:57:05;9.65;;;3.20;;
40669;SDS011;26355;45.528;9.234;2023-08-17T02:59:30;10.48;;;3.47;;
40669;SDS011;26355;45.528;9.234;2023-08-17T03:01:56;10.55;;;3.65;;
40669;SDS011;26355;45.528;9.234;2023-08-17T03:04:22;9.00;;;3.53;;
40669;SDS011;26355;45.528;9.234;2023-08-17T03:06:48;11.55;;;4.00;;
40669;SDS011;26355;45.528;9.234;2023-08-17T03:09:13;9.95;;;3.42;;
40669;SDS011;26355;45.528;9.234;2023-08-17T03:11:39;10.68;;;3.53;;
40669;SDS011;26355;45.528;9.234;2023-08-17T03:14:04;9.68;;;3.72;;
40669;SDS011;26355;45.528;9.234;2023-08-17T03:16:30;9.30;;;3.42;;
40669;SDS011;26355;45.528;9.234;2023-08-17T03:18:56;11.75;;;3.95;;
40669;SDS011;26355;45.528;9.234;2023-08-17T03:21:21;10.98;;;3.78;;
40669;SDS011;26355;45.528;9.234;2023-08-17T03:23:48;10.57;;;3.60;;
40669;SDS011;26355;45.528;9.234;2023-08-17T03:26:14;12.05;;;4.20;;
40669;SDS011;26355;45.528;9.234;2023-08-17T03:28:40;8.77;;;3.63;;
40669;SDS011;26355;45.528;9.234;2023-08-17T03:31:06;10.52;;;3.65;;
40669;SDS011;26355;45.528;9.234;2023-08-17T03:33:33;11.52;;;3.80;;
40669;SDS011;26355;45.528;9.234;2023-08-17T03:35:59;13.05;;;3.97;;
40669;SDS011;26355;45.528;9.234;2023-08-17T03:38:25;9.90;;;3.60;;
40669;SDS011;26355;45.528;9.234;2023-08-17T03:40:50;10.30;;;3.78;;
40669;SDS011;26355;45.528;9.234;2023-08-17T03:43:16;12.82;;;3.70;;
40669;SDS011;26355;45.528;9.234;2023-08-17T03:45:42;9.02;;;3.42;;
40669;SDS011;26355;45.528;9.234;2023-08-17T03:48:08;9.52;;;3.50;;
40669;SDS011;26355;45.528;9.234;2023-08-17T03:50:34;8.10;;;3.40;;
40669;SDS011;26355;45.528;9.234;2023-08-17T03:52:59;9.73;;;3.53;;
40669;SDS011;26355;45.528;9.234;2023-08-17T03:55:25;9.57;;;3.38;;
40669;SDS011;26355;45.528;9.234;2023-08-17T03:57:50;9.98;;;3.42;;
40669;SDS011;26355;45.528;9.234;2023-08-17T04:00:16;8.77;;;3.60;;
40669;SDS011;26355;45.528;9.234;2023-08-17T04:02:42;9.98;;;3.65;;
40669;SDS011;26355;45.528;9.234;2023-08-17T04:05:08;8.70;;;3.60;;
40669;SDS011;26355;45.528;9.234;2023-08-17T04:07:34;9.73;;;3.55;;
40669;SDS011;26355;45.528;9.234;2023-08-17T04:09:59;8.32;;;3.40;;
40669;SDS011;26355;45.528;9.234;2023-08-17T04:12:25;7.72;;;3.33;;
40669;SDS011;26355;45.528;9.234;2023-08-17T04:14:50;9.68;;;3.50;;
40669;SDS011;26355;45.528;9.234;2023-08-17T04:17:16;11.68;;;3.60;;
40669;SDS011;26355;45.528;9.234;2023-08-17T04:19:42;12.27;;;3.92;;
40669;SDS011;26355;45.528;9.234;2023-08-17T04:22:07;8.98;;;3.38;;
40669;SDS011;26355;45.528;9.234;2023-08-17T04:24:33;12.70;;;4.03;;
40669;SDS011;26355;45.528;9.234;2023-08-17T04:26:59;10.25;;;3.80;;
40669;SDS011;26355;45.528;9.234;2023-08-17T04:29:25;10.18;;;3.70;;
40669;SDS011;26355;45.528;9.234;2023-08-17T04:31:50;11.77;;;3.90;;
40669;SDS011;26355;45.528;9.234;2023-08-17T04:34:16;9.77;;;3.58;;
40669;SDS011;26355;45.528;9.234;2023-08-17T04:36:42;9.45;;;3.72;;
40669;SDS011;26355;45.528;9.234;2023-08-17T04:39:07;10.27;;;3.92;;
40669;SDS011;26355;45.528;9.234;2023-08-17T04:41:34;10.60;;;3.85;;
40669;SDS011;26355;45.528;9.234;2023-08-17T04:43:59;11.73;;;4.07;;
40669;SDS011;26355;45.528;9.234;2023-08-17T04:46:25;10.85;;;4.00;;
40669;SDS011;26355;45.528;9.234;2023-08-17T04:48:50;10.82;;;4.22;;
40669;SDS011;26355;45.528;9.234;2023-08-17T04:51:17;11.00;;;3.60;;
40669;SDS011;26355;45.528;9.234;2023-08-17T04:53:43;10.90;;;4.05;;
40669;SDS011;26355;45.528;9.234;2023-08-17T04:56:08;10.80;;;3.80;;
40669;SDS011;26355;45.528;9.234;2023-08-17T04:58:34;11.90;;;4.20;;
40669;SDS011;26355;45.528;9.234;2023-08-17T05:00:59;11.60;;;4.28;;
40669;SDS011;26355;45.528;9.234;2023-08-17T05:03:25;11.15;;;4.15;;
40669;SDS011;26355;45.528;9.234;2023-08-17T05:05:54;10.75;;;4.20;;
40669;SDS011;26355;45.528;9.234;2023-08-17T05:08:19;12.40;;;4.40;;
40669;SDS011;26355;45.528;9.234;2023-08-17T05:10:47;11.63;;;4.43;;
40669;SDS011;26355;45.528;9.234;2023-08-17T05:13:12;12.60;;;4.18;;
40669;SDS011;26355;45.528;9.234;2023-08-17T05:15:38;14.20;;;4.47;;
40669;SDS011;26355;45.528;9.234;2023-08-17T05:18:03;11.52;;;4.20;;
40669;SDS011;26355;45.528;9.234;2023-08-17T05:20:29;10.88;;;4.20;;
40669;SDS011;26355;45.528;9.234;2023-08-17T05:22:55;13.40;;;4.50;;
40669;SDS011;26355;45.528;9.234;2023-08-17T05:25:20;12.32;;;4.20;;
40669;SDS011;26355;45.528;9.234;2023-08-17T05:27:47;13.23;;;4.70;;
40669;SDS011;26355;45.528;9.234;2023-08-17T05:30:14;11.40;;;4.35;;
40669;SDS011;26355;45.528;9.234;2023-08-17T05:32:39;13.20;;;3.90;;
40669;SDS011;26355;45.528;9.234;2023-08-17T05:35:05;14.35;;;4.95;;
40669;SDS011;26355;45.528;9.234;2023-08-17T05:37:31;13.98;;;5.35;;
40669;SDS011;26355;45.528;9.234;2023-08-17T05:39:56;15.48;;;6.22;;
40669;SDS011;26355;45.528;9.234;2023-08-17T05:42:22;15.88;;;6.30;;
40669;SDS011;26355;45.528;9.234;2023-08-17T05:44:48;15.70;;;6.85;;
40669;SDS011;26355;45.528;9.234;2023-08-17T05:47:13;18.02;;;7.97;;
40669;SDS011;26355;45.528;9.234;2023-08-17T05:49:42;17.85;;;7.28;;
40669;SDS011;26355;45.528;9.234;2023-08-17T05:52:08;18.73;;;7.72;;
40669;SDS011;26355;45.528;9.234;2023-08-17T05:54:33;19.60;;;8.65;;
40669;SDS011;26355;45.528;9.234;2023-08-17T05:56:59;17.33;;;8.07;;
40669;SDS011;26355;45.528;9.234;2023-08-17T05:59:24;17.38;;;7.78;;
40669;SDS011;26355;45.528;9.234;2023-08-17T06:01:50;16.52;;;7.63;;
40669;SDS011;26355;45.528;9.234;2023-08-17T06:04:15;19.20;;;8.48;;
40669;SDS011;26355;45.528;9.234;2023-08-17T06:06:41;19.05;;;8.07;;
40669;SDS011;26355;45.528;9.234;2023-08-17T06:09:07;20.60;;;9.23;;
40669;SDS011;26355;45.528;9.234;2023-08-17T06:11:33;21.20;;;9.87;;
40669;SDS011;26355;45.528;9.234;2023-08-17T06:13:59;20.75;;;9.05;;
40669;SDS011;26355;45.528;9.234;2023-08-17T06:16:25;21.85;;;8.82;;
40669;SDS011;26355;45.528;9.234;2023-08-17T06:18:50;18.23;;;8.57;;
40669;SDS011;26355;45.528;9.234;2023-08-17T06:21:16;15.75;;;7.20;;
40669;SDS011;26355;45.528;9.234;2023-08-17T06:23:41;16.33;;;6.35;;
40669;SDS011;26355;45.528;9.234;2023-08-17T06:26:07;15.25;;;5.75;;
40669;SDS011;26355;45.528;9.234;2023-08-17T06:28:33;15.38;;;6.10;;
40669;SDS011;26355;45.528;9.234;2023-08-17T06:30:58;13.65;;;5.00;;
40669;SDS011;26355;45.528;9.234;2023-08-17T06:33:24;12.57;;;4.95;;
40669;SDS011;26355;45.528;9.234;2023-08-17T06:35:49;13.85;;;4.82;;
40669;SDS011;26355;45.528;9.234;2023-08-17T06:38:15;13.35;;;4.70;;
40669;SDS011;26355;45.528;9.234;2023-08-17T06:40:40;13.98;;;4.65;;
40669;SDS011;26355;45.528;9.234;2023-08-17T06:43:06;11.52;;;4.22;;
40669;SDS011;26355;45.528;9.234;2023-08-17T06:45:32;12.60;;;4.63;;
40669;SDS011;26355;45.528;9.234;2023-08-17T06:47:58;11.07;;;4.20;;
40669;SDS011;26355;45.528;9.234;2023-08-17T06:50:23;11.27;;;4.32;;
40669;SDS011;26355;45.528;9.234;2023-08-17T06:52:50;12.03;;;3.97;;
40669;SDS011;26355;45.528;9.234;2023-08-17T06:55:15;12.68;;;4.10;;
40669;SDS011;26355;45.528;9.234;2023-08-17T06:57:41;12.20;;;4.00;;
40669;SDS011;26355;45.528;9.234;2023-08-17T07:00:07;9.52;;;3.83;;
40669;SDS011;26355;45.528;9.234;2023-08-17T07:02:33;10.43;;;4.22;;
40669;SDS011;26355;45.528;9.234;2023-08-17T07:04:59;11.30;;;4.18;;
40669;SDS011;26355;45.528;9.234;2023-08-17T07:07:25;9.85;;;4.15;;
40669;SDS011;26355;45.528;9.234;2023-08-17T07:09:51;12.45;;;3.78;;
40669;SDS011;26355;45.528;9.234;2023-08-17T07:12:17;10.75;;;3.80;;
40669;SDS011;26355;45.528;9.234;2023-08-17T07:14:44;10.32;;;3.95;;
40669;SDS011;26355;45.528;9.234;2023-08-17T07:17:09;9.68;;;3.60;;
40669;SDS011;26355;45.528;9.234;2023-08-17T07:19:35;10.80;;;4.00;;
40669;SDS011;26355;45.528;9.234;2023-08-17T07:22:01;8.60;;;3.60;;
40669;SDS011;26355;45.528;9.234;2023-08-17T07:24:26;9.68;;;3.80;;
40669;SDS011;26355;45.528;9.234;2023-08-17T07:26:52;10.02;;;3.63;;
40669;SDS011;26355;45.528;9.234;2023-08-17T07:29:18;9.60;;;4.15;;
40669;SDS011;26355;45.528;9.234;2023-08-17T07:31:43;11.38;;;4.03;;
40669;SDS011;26355;45.528;9.234;2023-08-17T07:34:09;11.93;;;3.47;;
40669;SDS011;26355;45.528;9.234;2023-08-17T07:36:35;11.93;;;4.70;;
40669;SDS011;26355;45.528;9.234;2023-08-17T07:39:01;12.82;;;4.25;;
40669;SDS011;26355;45.528;9.234;2023-08-17T07:41:26;11.15;;;4.10;;
40669;SDS011;26355;45.528;9.234;2023-08-17T07:43:52;12.15;;;4.38;;
40669;SDS011;26355;45.528;9.234;2023-08-17T07:46:17;11.25;;;4.15;;
40669;SDS011;26355;45.528;9.234;2023-08-17T07:48:43;11.43;;;3.90;;
40669;SDS011;26355;45.528;9.234;2023-08-17T07:51:09;9.88;;;3.67;;
40669;SDS011;26355;45.528;9.234;2023-08-17T07:53:34;13.27;;;4.35;;
40669;SDS011;26355;45.528;9.234;2023-08-17T07:56:00;9.60;;;3.85;;
40669;SDS011;26355;45.528;9.234;2023-08-17T07:58:25;9.90;;;3.92;;
40669;SDS011;26355;45.528;9.234;2023-08-17T08:00:51;8.75;;;3.70;;
40669;SDS011;26355;45.528;9.234;2023-08-17T08:03:16;9.95;;;3.78;;
40669;SDS011;26355;45.528;9.234;2023-08-17T08:05:42;11.80;;;3.80;;
40669;SDS011;26355;45.528;9.234;2023-08-17T08:08:07;10.30;;;3.92;;
40669;SDS011;26355;45.528;9.234;2023-08-17T08:10:33;8.52;;;3.67;;
40669;SDS011;26355;45.528;9.234;2023-08-17T08:12:58;11.35;;;4.13;;
40669;SDS011;26355;45.528;9.234;2023-08-17T08:15:24;11.00;;;4.00;;
40669;SDS011;26355;45.528;9.234;2023-08-17T08:17:50;8.82;;;3.72;;
40669;SDS011;26355;45.528;9.234;2023-08-17T08:20:15;9.15;;;3.85;;
40669;SDS011;26355;45.528;9.234;2023-08-17T08:22:41;9.85;;;4.18;;
40669;SDS011;26355;45.528;9.234;2023-08-17T08:25:07;13.80;;;4.07;;
40669;SDS011;26355;45.528;9.234;2023-08-17T08:27:32;11.00;;;4.18;;
40669;SDS011;26355;45.528;9.234;2023-08-17T08:29:58;9.27;;;3.67;;
40669;SDS011;26355;45.528;9.234;2023-08-17T08:32:23;10.15;;;3.72;;
40669;SDS011;26355;45.528;9.234;2023-08-17T08:34:49;9.93;;;3.85;;
40669;SDS011;26355;45.528;9.234;2023-08-17T08:37:15;12.77;;;3.70;;
40669;SDS011;26355;45.528;9.234;2023-08-17T08:39:53;12.52;;;3.95;;
40669;SDS011;26355;45.528;9.234;2023-08-17T08:42:20;12.32;;;4.32;;
40669;SDS011;26355;45.528;9.234;2023-08-17T08:47:13;10.97;;;4.20;;
40669;SDS011;26355;45.528;9.234;2023-08-17T08:49:39;12.07;;;4.13;;
40669;SDS011;26355;45.528;9.234;2023-08-17T08:52:12;9.45;;;3.78;;
40669;SDS011;26355;45.528;9.234;2023-08-17T08:54:44;12.40;;;4.15;;
40669;SDS011;26355;45.528;9.234;2023-08-17T08:57:13;13.90;;;4.30;;
40669;SDS011;26355;45.528;9.234;2023-08-17T08:59:39;10.63;;;4.40;;
40669;SDS011;26355;45.528;9.234;2023-08-17T09:02:12;10.05;;;4.10;;
40669;SDS011;26355;45.528;9.234;2023-08-17T09:04:40;12.45;;;4.68;;
40669;SDS011;26355;45.528;9.234;2023-08-17T09:07:07;11.43;;;4.60;;
40669;SDS011;26355;45.528;9.234;2023-08-17T09:09:34;12.05;;;4.60;;
40669;SDS011;26355;45.528;9.234;2023-08-17T09:12:00;12.02;;;4.38;;
40669;SDS011;26355;45.528;9.234;2023-08-17T09:14:26;12.07;;;4.47;;
40669;SDS011;26355;45.528;9.234;2023-08-17T09:16:51;11.63;;;4.30;;
40669;SDS011;26355;45.528;9.234;2023-08-17T09:19:18;11.43;;;4.53;;
40669;SDS011;26355;45.528;9.234;2023-08-17T09:21:43;11.80;;;4.57;;
40669;SDS011;26355;45.528;9.234;2023-08-17T09:24:09;14.02;;;4.85;;
40669;SDS011;26355;45.528;9.234;2023-08-17T09:26:37;11.23;;;4.32;;
40669;SDS011;26355;45.528;9.234;2023-08-17T09:29:15;12.30;;;4.97;;
40669;SDS011;26355;45.528;9.234;2023-08-17T09:31:45;13.25;;;4.80;;
40669;SDS011;26355;45.528;9.234;2023-08-17T09:34:11;14.23;;;4.75;;
40669;SDS011;26355;45.528;9.234;2023-08-17T09:36:39;11.57;;;4.47;;
40669;SDS011;26355;45.528;9.234;2023-08-17T09:39:05;12.13;;;4.70;;
40669;SDS011;26355;45.528;9.234;2023-08-17T09:41:37;14.50;;;4.93;;
40669;SDS011;26355;45.528;9.234;2023-08-17T09:44:06;11.13;;;4.78;;
40669;SDS011;26355;45.528;9.234;2023-08-17T09:46:34;12.18;;;4.45;;
40669;SDS011;26355;45.528;9.234;2023-08-17T09:49:01;14.27;;;5.53;;
40669;SDS011;26355;45.528;9.234;2023-08-17T09:51:29;15.02;;;5.30;;
40669;SDS011;26355;45.528;9.234;2023-08-17T09:53:55;12.27;;;4.68;;
40669;SDS011;26355;45.528;9.234;2023-08-17T09:56:21;11.48;;;5.03;;
40669;SDS011;26355;45.528;9.234;2023-08-17T09:58:49;12.45;;;5.40;;
40669;SDS011;26355;45.528;9.234;2023-08-17T10:01:15;12.93;;;5.30;;
40669;SDS011;26355;45.528;9.234;2023-08-17T10:03:43;12.52;;;5.03;;
40669;SDS011;26355;45.528;9.234;2023-08-17T10:06:15;12.13;;;4.90;;
40669;SDS011;26355;45.528;9.234;2023-08-17T10:08:47;13.27;;;5.07;;
40669;SDS011;26355;45.528;9.234;2023-08-17T10:11:16;13.85;;;5.05;;
40669;SDS011;26355;45.528;9.234;2023-08-17T10:13:46;12.23;;;4.90;;
40669;SDS011;26355;45.528;9.234;2023-08-17T10:19:46;13.68;;;5.22;;
40669;SDS011;26355;45.528;9.234;2023-08-17T10:21:53;13.80;;;5.07;;
40669;SDS011;26355;45.528;9.234;2023-08-17T10:24:24;15.60;;;5.72;;
40669;SDS011;26355;45.528;9.234;2023-08-17T10:26:49;14.97;;;4.53;;
40669;SDS011;26355;45.528;9.234;2023-08-17T10:29:16;13.18;;;4.90;;
40669;SDS011;26355;45.528;9.234;2023-08-17T10:31:43;11.88;;;4.70;;
40669;SDS011;26355;45.528;9.234;2023-08-17T10:34:12;11.23;;;4.72;;
40669;SDS011;26355;45.528;9.234;2023-08-17T10:36:38;12.65;;;4.93;;
40669;SDS011;26355;45.528;9.234;2023-08-17T10:39:21;12.38;;;4.97;;
40669;SDS011;26355;45.528;9.234;2023-08-17T10:41:49;11.05;;;5.20;;
40669;SDS011;26355;45.528;9.234;2023-08-17T10:44:16;13.25;;;4.95;;
40669;SDS011;26355;45.528;9.234;2023-08-17T10:46:43;12.52;;;5.07;;
40669;SDS011;26355;45.528;9.234;2023-08-17T10:49:31;12.45;;;5.00;;
40669;SDS011;26355;45.528;9.234;2023-08-17T10:51:59;11.10;;;4.80;;
40669;SDS011;26355;45.528;9.234;2023-08-17T10:54:38;11.93;;;4.90;;
40669;SDS011;26355;45.528;9.234;2023-08-17T11:02:56;11.48;;;4.75;;
40669;SDS011;26355;45.528;9.234;2023-08-17T11:05:35;10.98;;;4.32;;
40669;SDS011;26355;45.528;9.234;2023-08-17T11:13:41;12.38;;;4.22;;
40669;SDS011;26355;45.528;9.234;2023-08-17T11:16:11;10.43;;;4.45;;
40669;SDS011;26355;45.528;9.234;2023-08-17T11:18:38;11.57;;;4.65;;
40669;SDS011;26355;45.528;9.234;2023-08-17T11:21:06;10.73;;;4.20;;
40669;SDS011;26355;45.528;9.234;2023-08-17T11:23:34;12.05;;;4.32;;
40669;SDS011;26355;45.528;9.234;2023-08-17T11:26:01;12.70;;;4.82;;
40669;SDS011;26355;45.528;9.234;2023-08-17T11:28:29;11.95;;;4.55;;
40669;SDS011;26355;45.528;9.234;2023-08-17T11:31:01;10.85;;;3.90;;
40669;SDS011;26355;45.528;9.234;2023-08-17T11:33:28;9.18;;;4.10;;
40669;SDS011;26355;45.528;9.234;2023-08-17T11:35:59;10.65;;;4.75;;
40669;SDS011;26355;45.528;9.234;2023-08-17T11:38:26;10.75;;;4.15;;
40669;SDS011;26355;45.528;9.234;2023-08-17T11:40:55;10.45;;;4.30;;
40669;SDS011;26355;45.528;9.234;2023-08-17T11:43:29;10.50;;;4.18;;
40669;SDS011;26355;45.528;9.234;2023-08-17T11:45:55;10.85;;;4.30;;
40669;SDS011;26355;45.528;9.234;2023-08-17T11:48:21;12.07;;;4.07;;
40669;SDS011;26355;45.528;9.234;2023-08-17T11:53:14;13.38;;;4.75;;
40669;SDS011;26355;45.528;9.234;2023-08-17T11:55:39;11.07;;;4.30;;
40669;SDS011;26355;45.528;9.234;2023-08-17T11:58:05;12.53;;;4.70;;
40669;SDS011;26355;45.528;9.234;2023-08-17T12:00:41;10.65;;;4.43;;
40669;SDS011;26355;45.528;9.234;2023-08-17T12:03:14;12.55;;;5.70;;
40669;SDS011;26355;45.528;9.234;2023-08-17T12:05:40;14.77;;;6.18;;
40669;SDS011;26355;45.528;9.234;2023-08-17T12:08:07;13.52;;;6.03;;
40669;SDS011;26355;45.528;9.234;2023-08-17T12:10:33;14.93;;;6.47;;
40669;SDS011;26355;45.528;9.234;2023-08-17T12:12:59;15.63;;;6.03;;
40669;SDS011;26355;45.528;9.234;2023-08-17T12:15:29;16.35;;;6.25;;
40669;SDS011;26355;45.528;9.234;2023-08-17T12:18:00;13.70;;;6.07;;
40669;SDS011;26355;45.528;9.234;2023-08-17T12:20:27;15.57;;;6.45;;
40669;SDS011;26355;45.528;9.234;2023-08-17T12:22:53;14.40;;;6.27;;
40669;SDS011;26355;45.528;9.234;2023-08-17T12:25:21;13.43;;;5.47;;
40669;SDS011;26355;45.528;9.234;2023-08-17T12:27:48;15.27;;;6.45;;
40669;SDS011;26355;45.528;9.234;2023-08-17T12:30:16;14.07;;;5.90;;
40669;SDS011;26355;45.528;9.234;2023-08-17T12:32:58;13.95;;;6.40;;
40669;SDS011;26355;45.528;9.234;2023-08-17T12:35:24;13.25;;;5.60;;
40669;SDS011;26355;45.528;9.234;2023-08-17T12:37:51;15.90;;;5.88;;
40669;SDS011;26355;45.528;9.234;2023-08-17T12:40:17;14.77;;;5.97;;
40669;SDS011;26355;45.528;9.234;2023-08-17T12:42:43;15.83;;;6.53;;
40669;SDS011;26355;45.528;9.234;2023-08-17T12:45:08;14.40;;;6.10;;
40669;SDS011;26355;45.528;9.234;2023-08-17T12:47:34;14.20;;;5.90;;
40669;SDS011;26355;45.528;9.234;2023-08-17T12:50:00;14.00;;;5.70;;
40669;SDS011;26355;45.528;9.234;2023-08-17T12:52:26;14.20;;;5.97;;
40669;SDS011;26355;45.528;9.234;2023-08-17T12:54:52;15.10;;;6.97;;
40669;SDS011;26355;45.528;9.234;2023-08-17T12:57:18;15.10;;;6.30;;
40669;SDS011;26355;45.528;9.234;2023-08-17T12:59:44;18.10;;;6.17;;
40669;SDS011;26355;45.528;9.234;2023-08-17T13:02:09;14.90;;;6.33;;
40669;SDS011;26355;45.528;9.234;2023-08-17T13:04:35;14.20;;;6.27;;
40669;SDS011;26355;45.528;9.234;2023-08-17T13:07:01;14.43;;;5.63;;
40669;SDS011;26355;45.528;9.234;2023-08-17T13:09:27;14.60;;;6.43;;
40669;SDS011;26355;45.528;9.234;2023-08-17T13:11:52;14.90;;;5.53;;
40669;SDS011;26355;45.528;9.234;2023-08-17T13:14:18;13.10;;;5.43;;
40669;SDS011;26355;45.528;9.234;2023-08-17T13:16:43;13.47;;;5.57;;
40669;SDS011;26355;45.528;9.234;2023-08-17T13:19:09;15.40;;;5.83;;
40669;SDS011;26355;45.528;9.234;2023-08-17T13:21:34;13.77;;;5.47;;
40669;SDS011;26355;45.528;9.234;2023-08-17T13:24:00;12.87;;;5.83;;
40669;SDS011;26355;45.528;9.234;2023-08-17T13:26:28;14.52;;;5.28;;
40669;SDS011;26355;45.528;9.234;2023-08-17T13:28:53;14.07;;;5.17;;
40669;SDS011;26355;45.528;9.234;2023-08-17T13:31:19;14.30;;;5.43;;
40669;SDS011;26355;45.528;9.234;2023-08-17T13:33:45;12.97;;;5.73;;
40669;SDS011;26355;45.528;9.234;2023-08-17T13:36:10;13.43;;;5.40;;
40669;SDS011;26355;45.528;9.234;2023-08-17T13:38:36;14.50;;;5.57;;
40669;SDS011;26355;45.528;9.234;2023-08-17T13:41:03;12.98;;;5.40;;
40669;SDS011;26355;45.528;9.234;2023-08-17T13:43:29;13.13;;;5.37;;
40669;SDS011;26355;45.528;9.234;2023-08-17T13:45:54;13.73;;;5.20;;
40669;SDS011;26355;45.528;9.234;2023-08-17T13:48:20;11.20;;;5.10;;
40669;SDS011;26355;45.528;9.234;2023-08-17T13:50:45;11.53;;;5.00;;
40669;SDS011;26355;45.528;9.234;2023-08-17T13:53:11;13.27;;;5.30;;
40669;SDS011;26355;45.528;9.234;2023-08-17T13:55:37;11.73;;;5.10;;
40669;SDS011;26355;45.528;9.234;2023-08-17T13:58:02;11.20;;;4.67;;
40669;SDS011;26355;45.528;9.234;2023-08-17T14:00:28;13.63;;;5.23;;
40669;SDS011;26355;45.528;9.234;2023-08-17T14:02:54;11.87;;;5.33;;
40669;SDS011;26355;45.528;9.234;2023-08-17T14:05:19;12.33;;;5.60;;
40669;SDS011;26355;45.528;9.234;2023-08-17T14:07:45;13.50;;;5.40;;
40669;SDS011;26355;45.528;9.234;2023-08-17T14:10:11;13.90;;;5.60;;
40669;SDS011;26355;45.528;9.234;2023-08-17T14:12:37;12.60;;;5.50;;
40669;SDS011;26355;45.528;9.234;2023-08-17T14:15:03;12.63;;;5.17;;
40669;SDS011;26355;45.528;9.234;2023-08-17T14:17:37;13.55;;;5.40;;
40669;SDS011;26355;45.528;9.234;2023-08-17T14:20:03;12.33;;;5.10;;
40669;SDS011;26355;45.528;9.234;2023-08-17T14:22:29;11.35;;;5.07;;
40669;SDS011;26355;45.528;9.234;2023-08-17T14:24:55;12.63;;;5.00;;
40669;SDS011;26355;45.528;9.234;2023-08-17T14:27:21;15.53;;;5.17;;
40669;SDS011;26355;45.528;9.234;2023-08-17T14:29:46;12.70;;;5.13;;
40669;SDS011;26355;45.528;9.234;2023-08-17T14:32:12;11.43;;;5.03;;
40669;SDS011;26355;45.528;9.234;2023-08-17T14:34:38;12.80;;;5.60;;
40669;SDS011;26355;45.528;9.234;2023-08-17T14:37:03;13.13;;;5.73;;
40669;SDS011;26355;45.528;9.234;2023-08-17T14:39:29;13.87;;;5.87;;
40669;SDS011;26355;45.528;9.234;2023-08-17T14:41:54;14.13;;;6.07;;
40669;SDS011;26355;45.528;9.234;2023-08-17T14:44:20;13.97;;;5.47;;
40669;SDS011;26355;45.528;9.234;2023-08-17T14:46:46;13.63;;;6.17;;
40669;SDS011;26355;45.528;9.234;2023-08-17T14:49:11;15.20;;;6.33;;
40669;SDS011;26355;45.528;9.234;2023-08-17T14:51:38;15.38;;;6.60;;
40669;SDS011;26355;45.528;9.234;2023-08-17T14:56:30;15.45;;;6.28;;
40669;SDS011;26355;45.528;9.234;2023-08-17T14:58:55;13.03;;;5.50;;